Time;durP1;ratioP1;P1;durP2;ratioP2;P2;SDS_P1;SDS_P2;PMS_P1;PMS_P2;Temp;Humidity;BMP_temperature;BMP_pressure;BME280_temperature;BME280_humidity;BME280_pressure;Samples;Min_cycle;Max_cycle;Signal;HPM_P1;HPM_P2
2021/06/20 00:00:26;;;;;;;33.25;20.40;;;19.70;99.90;;;20.11;87.30;100725.97;5135816;27;20059;-68
2021/06/20 00:02:55;;;;;;;21.50;17.90;;;19.80;99.90;;;20.14;87.45;100730.31;5135775;27;20054;-68
2021/06/20 00:05:26;;;;;;;22.77;17.67;;;19.80;99.90;;;20.12;87.42;100725.03;5135403;27;20066;-68
2021/06/20 00:07:55;;;;;;;17.65;15.43;;;19.80;99.90;;;20.21;87.21;100731.84;5135698;27;20451;-68
2021/06/20 00:10:27;;;;;;;16.80;13.82;;;19.90;99.90;;;20.00;87.23;100720.22;5135497;27;20472;-68
2021/06/20 00:12:58;;;;;;;16.80;14.20;;;19.80;99.90;;;20.09;87.00;100711.72;5117151;27;20768;-68
2021/06/20 00:15:29;;;;;;;14.18;11.88;;;19.80;99.90;;;20.01;86.67;100692.44;5117170;27;20865;-68
2021/06/20 00:18:00;;;;;;;15.05;11.95;;;19.80;99.90;;;19.93;86.78;100691.91;5135547;27;20091;-68
2021/06/20 00:20:33;;;;;;;15.23;12.20;;;19.70;99.90;;;19.90;87.02;100689.34;5135405;27;20071;-68
2021/06/20 00:23:02;;;;;;;13.00;11.30;;;19.70;99.90;;;19.58;87.02;100628.19;5135110;27;20464;-68
2021/06/20 00:25:33;;;;;;;12.23;10.93;;;19.60;99.90;;;19.89;87.00;100670.63;5135210;27;20122;-68
2021/06/20 00:28:05;;;;;;;11.38;10.18;;;19.60;99.90;;;19.65;86.63;100640.41;5117151;27;20096;-68
2021/06/20 00:30:36;;;;;;;12.02;10.73;;;19.60;99.90;;;19.72;86.68;100679.47;5135286;27;20051;-68
2021/06/20 00:33:05;;;;;;;12.07;10.30;;;19.50;99.90;;;19.67;86.65;100678.78;5135244;27;20065;-68
2021/06/20 00:35:34;;;;;;;13.65;10.82;;;19.50;99.90;;;19.68;86.70;100684.09;5135315;27;20046;-68
2021/06/20 00:38:02;;;;;;;12.18;10.88;;;19.40;99.90;;;19.67;86.66;100700.25;5135144;27;20042;-68
2021/06/20 00:40:31;;;;;;;14.13;11.68;;;19.40;99.90;;;19.72;86.29;100700.94;5135038;27;20039;-68
2021/06/20 00:42:59;;;;;;;13.07;11.70;;;19.50;99.90;;;19.61;86.30;100703.19;5134638;27;20556;-68
2021/06/20 00:45:29;;;;;;;15.20;11.65;;;19.40;99.90;;;19.49;87.04;100709.97;5134939;27;20075;-68
2021/06/20 00:47:58;;;;;;;13.32;11.73;;;19.30;99.90;;;19.45;87.18;100707.50;5134907;27;20078;-68
2021/06/20 00:50:28;;;;;;;13.90;11.27;;;19.20;99.90;;;19.53;87.44;100702.69;5134833;27;20071;-68
2021/06/20 00:52:59;;;;;;;15.23;11.80;;;19.30;99.90;;;19.58;87.19;100696.19;5134299;27;20051;-68
2021/06/20 00:55:31;;;;;;;;;;;19.30;99.90;;;19.51;86.91;100686.63;5135284;27;20039;-68
2021/06/20 00:58:00;;;;;;;13.60;11.27;;;19.30;99.90;;;19.52;87.24;100682.13;5134568;27;19964;-68
2021/06/20 01:00:32;;;;;;;15.40;11.23;;;19.30;99.90;;;19.46;86.77;100704.75;5134553;27;20429;-68
2021/06/20 01:03:01;;;;;;;11.90;9.43;;;19.30;99.90;;;18.64;86.48;100573.31;5134370;27;20393;-68
2021/06/20 01:05:30;;;;;;;10.15;8.50;;;19.20;99.90;;;19.46;86.91;100710.13;5134302;27;20144;-68
2021/06/20 01:07:59;;;;;;;10.48;9.38;;;19.20;99.90;;;19.48;86.88;100700.19;5116018;27;20031;-68
2021/06/20 01:10:35;;;;;;;10.00;9.00;;;19.20;99.90;;;19.52;86.81;100695.56;5115609;27;20066;-68
2021/06/20 01:13:06;;;;;;;11.57;7.80;;;19.30;99.90;;;19.47;86.58;100698.44;5116238;27;20051;-68
2021/06/20 01:15:37;;;;;;;6.82;6.15;;;19.20;99.90;;;19.24;86.83;100660.13;5134156;27;20058;-69
2021/06/20 01:18:07;;;;;;;7.28;6.05;;;19.20;99.90;;;19.42;86.63;100688.84;5134427;27;20373;-69
2021/06/20 01:20:36;;;;;;;5.35;4.85;;;19.10;99.90;;;19.40;86.42;100685.34;5134553;27;20362;-68
2021/06/20 01:23:06;;;;;;;5.05;4.65;;;19.20;99.90;;;19.19;86.24;100671.03;5133907;27;20063;-69
2021/06/20 01:25:38;;;;;;;4.93;4.53;;;19.10;99.90;;;19.40;85.98;100693.41;5134188;27;20047;-69
2021/06/20 01:28:08;;;;;;;5.25;4.22;;;19.10;99.90;;;19.40;86.11;100685.34;5115750;28;20043;-69
2021/06/20 01:30:43;;;;;;;4.35;3.95;;;19.20;99.90;;;19.40;85.92;100688.91;5134146;27;20096;-69
2021/06/20 01:33:14;;;;;;;4.90;4.07;;;19.20;99.90;;;19.37;85.73;100666.72;5134170;27;20035;-69
2021/06/20 01:35:45;;;;;;;4.65;4.07;;;19.10;99.90;;;19.39;85.56;100625.50;5134388;27;20104;-68
2021/06/20 01:38:14;;;;;;;4.68;3.90;;;19.20;99.90;;;19.32;86.02;100567.66;5134094;27;20422;-68
2021/06/20 01:40:44;;;;;;;4.00;3.70;;;19.10;99.90;;;19.36;86.30;100558.53;5115820;27;20058;-68
2021/06/20 01:43:13;;;;;;;4.80;4.22;;;19.10;99.90;;;19.19;85.84;100512.81;5133919;27;20035;-69
2021/06/20 01:45:41;;;;;;;4.00;3.60;;;19.10;99.90;;;19.22;86.00;100507.28;5133883;27;20407;-69
2021/06/20 01:48:10;;;;;;;5.22;3.55;;;19.00;99.90;;;19.18;86.13;100521.78;5133966;27;20039;-68
2021/06/20 01:50:38;;;;;;;4.07;3.67;;;18.90;99.90;;;19.23;86.16;100516.22;5133881;27;20058;-68
2021/06/20 01:53:09;;;;;;;4.18;3.78;;;19.00;99.90;;;19.08;86.22;100530.31;5133889;28;20039;-69
2021/06/20 01:55:43;;;;;;;3.92;3.47;;;18.90;99.90;;;19.10;86.27;100528.44;5133730;28;20051;-69
2021/06/20 01:58:13;;;;;;;3.53;3.20;;;18.80;99.90;;;19.13;86.23;100491.63;5134184;28;20059;-68
2021/06/20 02:00:44;;;;;;;3.85;3.45;;;18.90;99.90;;;19.07;86.61;100470.47;5134004;28;20058;-69
2021/06/20 02:03:16;;;;;;;3.30;3.00;;;18.80;99.90;;;19.06;86.41;100466.06;5134074;28;20088;-68
2021/06/20 02:05:47;;;;;;;3.55;3.15;;;18.80;99.90;;;19.06;86.14;100492.88;5133651;28;20100;-69
2021/06/20 02:08:19;;;;;;;3.65;3.30;;;18.80;99.90;;;19.02;86.19;100541.31;5133804;28;20047;-68
2021/06/20 02:10:50;;;;;;;3.25;2.92;;;18.70;99.90;;;19.02;86.06;100568.13;5133769;28;20055;-69
2021/06/20 02:13:23;;;;;;;6.22;2.88;;;18.70;99.90;;;18.96;85.81;100587.16;5135510;27;20039;-68
2021/06/20 02:15:51;;;;;;;3.40;2.95;;;18.60;99.90;;;18.95;86.14;100577.38;5137903;27;20039;-68
2021/06/20 02:18:21;;;;;;;3.30;3.00;;;18.70;99.90;;;19.00;86.33;100578.91;5137584;27;20553;-69
2021/06/20 02:20:50;;;;;;;3.50;3.30;;;18.70;99.90;;;19.10;86.25;100552.56;5138341;27;20043;-69
2021/06/20 02:23:18;;;;;;;3.40;3.10;;;18.80;99.90;;;19.12;86.53;100522.09;5137627;27;20773;-68
2021/06/20 02:25:48;;;;;;;4.40;3.25;;;18.80;99.90;;;19.12;86.43;100537.28;5137323;27;20047;-69
2021/06/20 02:28:17;;;;;;;3.28;2.97;;;18.80;99.90;;;19.15;86.12;100572.00;5137686;27;20099;-69
2021/06/20 02:30:47;;;;;;;3.08;2.78;;;18.90;99.90;;;19.17;85.88;100567.44;5137646;27;20438;-69
2021/06/20 02:33:15;;;;;;;3.17;2.88;;;18.80;99.90;;;19.23;85.87;100543.03;5137579;27;20053;-69
2021/06/20 02:35:44;;;;;;;4.10;3.15;;;18.90;99.90;;;19.24;85.84;100552.84;5137165;27;20062;-69
2021/06/20 02:38:12;;;;;;;3.40;3.10;;;18.90;99.90;;;19.26;85.50;100556.31;5137177;27;20097;-68
2021/06/20 02:40:41;;;;;;;3.33;2.80;;;19.00;99.90;;;19.28;85.25;100567.84;5137098;27;20635;-69
2021/06/20 02:43:10;;;;;;;2.88;2.67;;;19.00;99.90;;;19.28;85.00;100554.44;5137556;27;20065;-69
2021/06/20 02:45:39;;;;;;;3.37;2.93;;;19.00;99.90;;;19.35;84.72;100582.75;5137027;27;20139;-69
2021/06/20 02:48:09;;;;;;;4.03;3.72;;;19.00;99.90;;;19.39;84.54;100579.88;5137249;27;20047;-68
2021/06/20 02:50:37;;;;;;;3.72;3.00;;;19.10;99.90;;;19.36;84.25;100573.75;5137546;27;20103;-68
2021/06/20 02:53:05;;;;;;;4.00;2.88;;;19.00;99.90;;;19.41;83.97;100587.84;5137179;27;20043;-68
2021/06/20 02:55:34;;;;;;;3.80;3.42;;;19.10;99.90;;;19.47;83.54;100590.25;5136986;27;20118;-68
2021/06/20 02:58:02;;;;;;;3.63;3.20;;;19.10;99.90;;;19.47;83.29;100582.22;5118555;27;20058;-69
2021/06/20 03:00:32;;;;;;;3.30;3.00;;;19.20;99.90;;;19.45;83.63;100576.91;5137291;27;20054;-69
2021/06/20 03:03:01;;;;;;;3.22;2.95;;;19.10;99.90;;;19.49;83.74;100570.44;5118549;27;20575;-68
2021/06/20 03:05:29;;;;;;;3.33;3.03;;;19.10;99.90;;;19.50;83.81;100565.97;5136819;27;20035;-69
2021/06/20 03:07:58;;;;;;;3.25;3.00;;;19.10;99.90;;;19.42;83.74;100546.66;5136919;27;20076;-68
2021/06/20 03:10:28;;;;;;;3.00;2.80;;;19.20;99.90;;;19.51;83.57;100573.09;5136588;27;20044;-68
2021/06/20 03:12:56;;;;;;;4.32;2.90;;;19.10;99.90;;;19.52;83.32;100573.00;5136781;27;20057;-68
2021/06/20 03:15:25;;;;;;;3.28;2.95;;;19.10;99.90;;;19.55;83.25;100586.28;5136894;27;20047;-69
2021/06/20 03:17:54;;;;;;;3.20;2.90;;;19.20;99.90;;;19.63;82.84;100594.84;5136649;27;20088;-68
2021/06/20 03:20:23;;;;;;;4.00;2.90;;;19.20;99.90;;;19.62;82.37;100603.84;5136643;27;20051;-69
2021/06/20 03:22:52;;;;;;;3.15;2.63;;;19.30;99.90;;;19.58;82.74;100607.63;5118090;27;20489;-69
2021/06/20 03:25:20;;;;;;;4.72;3.00;;;19.20;99.90;;;19.37;82.43;100594.28;5135749;27;20489;-69
2021/06/20 03:27:50;;;;;;;3.92;3.15;;;19.10;99.90;;;19.55;82.51;100612.25;5136425;27;20416;-68
2021/06/20 03:30:19;;;;;;;3.92;3.10;;;19.20;99.90;;;19.49;82.76;100612.53;5136473;27;20051;-68
2021/06/20 03:32:48;;;;;;;3.87;3.13;;;19.10;99.90;;;19.53;82.67;100627.56;5136186;27;20080;-68
2021/06/20 03:35:18;;;;;;;3.10;2.75;;;19.20;99.90;;;19.56;82.77;100656.91;5136520;27;20095;-68
2021/06/20 03:37:47;;;;;;;4.38;2.80;;;19.20;99.90;;;19.60;82.57;100680.88;5136378;27;20047;-68
2021/06/20 03:40:17;;;;;;;3.42;3.20;;;19.20;99.90;;;19.53;82.24;100674.03;5117848;27;20047;-69
2021/06/20 03:42:45;;;;;;;3.58;3.28;;;19.20;99.90;;;19.56;82.39;100673.03;5136172;27;20092;-69
2021/06/20 03:45:13;;;;;;;4.78;3.80;;;19.20;99.90;;;19.59;82.23;100652.28;5136082;27;20079;-69
2021/06/20 03:47:42;;;;;;;3.67;3.38;;;19.20;99.90;;;19.43;82.24;100619.06;5136103;27;20047;-68
2021/06/20 03:50:13;;;;;;;3.88;3.58;;;19.20;99.90;;;19.60;82.54;100645.13;5136351;27;20100;-68
2021/06/20 03:52:43;;;;;;;4.82;3.08;;;19.20;99.90;;;19.72;82.50;100645.41;5136333;27;20107;-69
2021/06/20 03:55:12;;;;;;;4.32;3.53;;;19.30;99.90;;;19.72;82.46;100661.50;5135753;27;20110;-69
2021/06/20 03:57:41;;;;;;;4.17;3.73;;;19.40;99.90;;;19.59;82.67;100673.75;5136383;27;20044;-68
2021/06/20 04:00:12;;;;;;;5.05;3.60;;;19.30;99.90;;;19.57;82.96;100674.75;5135871;27;20273;-68
2021/06/20 04:02:41;;;;;;;4.53;3.45;;;19.20;99.90;;;19.18;84.17;100655.88;5136048;27;20058;-68
2021/06/20 04:05:14;;;;;;;6.10;3.42;;;18.90;99.90;;;19.14;85.29;100658.75;5135467;27;20463;-69
2021/06/20 04:07:45;;;;;;;4.43;3.65;;;18.70;99.90;;;19.26;85.23;100671.66;5117380;27;20496;-69
2021/06/20 04:10:14;;;;;;;3.35;2.95;;;18.80;99.90;;;19.32;84.58;100674.97;5135791;27;20066;-68
2021/06/20 04:12:43;;;;;;;6.80;3.78;;;18.90;99.90;;;19.40;84.43;100654.03;5117221;27;20067;-68
2021/06/20 04:15:12;;;;;;;4.25;3.83;;;19.00;99.90;;;19.28;84.88;100635.75;5135286;27;20043;-69
2021/06/20 04:17:41;;;;;;;6.23;3.90;;;18.90;99.90;;;19.30;85.71;100630.34;5135749;27;20043;-69
2021/06/20 04:20:12;;;;;;;3.88;3.47;;;18.90;99.90;;;19.36;85.63;100630.97;5135151;27;20066;-69
2021/06/20 04:22:41;;;;;;;3.85;3.42;;;18.90;99.90;;;19.41;85.61;100628.97;5135524;27;20047;-69
2021/06/20 04:25:14;;;;;;;5.68;3.70;;;18.90;99.90;;;19.41;85.54;100626.28;5135287;27;20035;-69
2021/06/20 04:27:45;;;;;;;5.22;3.78;;;19.00;99.90;;;19.51;85.50;100618.69;5116938;27;20164;-68
2021/06/20 04:30:15;;;;;;;4.70;3.53;;;19.10;99.90;;;19.57;84.74;100634.50;5135230;27;20263;-68
2021/06/20 04:32:46;;;;;;;5.32;3.97;;;19.20;99.90;;;19.30;84.18;100608.91;5116785;27;20103;-69
2021/06/20 04:35:18;;;;;;;5.28;3.80;;;19.20;99.90;;;19.60;84.24;100642.44;5134301;27;20043;-69
2021/06/20 04:37:49;;;;;;;6.18;3.92;;;19.20;99.90;;;19.52;83.87;100639.22;5116688;27;20043;-69
2021/06/20 04:40:21;;;;;;;5.43;4.40;;;19.20;99.90;;;19.65;84.04;100626.97;5135028;27;20066;-69
2021/06/20 04:42:57;;;;;;;4.60;4.15;;;19.20;99.90;;;19.51;84.43;100605.28;5135042;27;20047;-69
2021/06/20 04:45:25;;;;;;;5.88;3.33;;;19.20;99.90;;;19.73;84.24;100632.88;5134650;27;20438;-69
2021/06/20 04:47:55;;;;;;;7.13;3.70;;;19.30;99.90;;;19.76;83.64;100648.84;5134932;27;20074;-69
2021/06/20 04:50:24;;;;;;;4.70;4.28;;;19.40;99.90;;;19.82;83.56;100659.31;5134881;27;20054;-69
2021/06/20 04:52:53;;;;;;;6.43;4.10;;;19.40;99.90;;;19.84;83.42;100669.97;5134846;27;20122;-69
2021/06/20 04:55:23;;;;;;;4.63;4.22;;;19.50;99.90;;;19.84;83.35;100670.81;5134643;27;20043;-69
2021/06/20 04:57:52;;;;;;;4.18;3.70;;;19.50;99.90;;;19.92;83.18;100668.66;5134724;27;20465;-68
2021/06/20 05:00:20;;;;;;;8.73;4.32;;;19.50;99.90;;;20.00;82.99;100668.31;5116232;27;20070;-69
2021/06/20 05:02:49;;;;;;;7.10;4.22;;;19.60;99.90;;;20.05;82.69;100661.81;5116258;27;20051;-69
2021/06/20 05:05:17;;;;;;;5.78;4.00;;;19.70;99.90;;;20.09;82.24;100646.41;5134494;27;20042;-68
2021/06/20 05:07:46;;;;;;;5.40;3.88;;;19.70;99.90;;;20.05;81.97;100648.38;5134518;27;20043;-70
2021/06/20 05:10:15;;;;;;;6.22;4.55;;;19.60;99.90;;;19.93;82.68;100643.56;5134473;27;20078;-69
2021/06/20 05:12:45;;;;;;;8.32;4.25;;;19.60;99.90;;;19.97;83.18;100647.00;5134119;27;20039;-69
2021/06/20 05:15:14;;;;;;;5.53;4.18;;;19.60;99.90;;;19.95;83.35;100647.06;5115919;27;20484;-69
2021/06/20 05:17:43;;;;;;;8.63;3.80;;;19.60;99.90;;;20.01;83.46;100653.97;5134065;27;20043;-69
2021/06/20 05:20:14;;;;;;;9.02;4.50;;;19.60;99.90;;;19.99;83.15;100661.22;5134372;27;20042;-69
2021/06/20 05:22:45;;;;;;;9.95;4.53;;;19.60;99.90;;;20.11;83.58;100666.03;5133924;27;20458;-69
2021/06/20 05:25:14;;;;;;;7.32;4.45;;;19.80;99.90;;;20.04;84.44;100664.53;5134295;27;20043;-69
2021/06/20 05:27:44;;;;;;;10.07;4.78;;;19.70;99.90;;;19.90;83.92;100667.03;5134229;27;20047;-69
2021/06/20 05:30:15;;;;;;;9.13;4.90;;;19.60;99.90;;;19.81;84.41;100668.28;5133977;27;20050;-69
2021/06/20 05:32:44;;;;;;;9.82;5.35;;;19.50;99.90;;;19.95;84.85;100673.03;5134214;27;20059;-69
2021/06/20 05:35:12;;;;;;;9.00;5.22;;;19.60;99.90;;;19.94;84.42;100658.72;5133895;27;20043;-69
2021/06/20 05:37:41;;;;;;;11.00;5.10;;;19.60;99.90;;;20.00;84.20;100661.13;5133850;27;20042;-71
2021/06/20 05:40:11;;;;;;;7.88;4.88;;;19.60;99.90;;;19.97;83.65;100658.59;5133805;27;20511;-69
2021/06/20 05:42:39;;;;;;;9.20;4.70;;;19.70;99.90;;;20.10;83.34;100651.72;5115724;28;20062;-69
2021/06/20 05:45:12;;;;;;;9.80;5.22;;;19.80;99.90;;;20.03;83.39;100652.97;5134106;27;20411;-69
2021/06/20 05:47:41;;;;;;;10.15;4.85;;;19.70;99.90;;;20.17;83.63;100646.94;5115640;28;20078;-72
2021/06/20 05:50:11;;;;;;;7.50;4.05;;;19.80;99.90;;;20.22;83.64;100656.56;5133983;27;20047;-69
2021/06/20 05:52:39;;;;;;;10.43;4.85;;;19.90;99.90;;;20.18;82.90;100652.25;5133672;27;20058;-70
2021/06/20 05:55:09;;;;;;;10.13;4.55;;;19.90;99.90;;;20.32;82.54;100660.56;5133857;28;20094;-69
2021/06/20 05:57:38;;;;;;;12.70;5.95;;;20.00;99.90;;;20.36;81.97;100661.28;5115122;28;20047;-69
2021/06/20 06:00:11;;;;;;;8.10;4.55;;;20.10;99.90;;;20.38;81.38;100664.75;5133608;28;20433;-70
2021/06/20 06:02:43;;;;;;;13.77;5.20;;;20.10;99.90;;;20.18;82.49;100651.34;5134157;28;20042;-69
2021/06/20 06:05:12;;;;;;;10.43;4.93;;;20.00;99.90;;;20.37;82.69;100673.75;5133736;28;20043;-69
2021/06/20 06:07:41;;;;;;;11.00;4.85;;;20.00;99.90;;;20.36;82.22;100677.38;5133990;28;20078;-69
2021/06/20 06:10:29;;;;;;;9.07;4.57;;;20.00;99.90;;;20.51;80.95;100676.66;5115430;28;20047;-69
2021/06/20 06:13:00;;;;;;;6.78;4.55;;;20.20;99.90;;;20.58;81.20;100678.97;5134003;28;20039;-69
2021/06/20 06:15:32;;;;;;;7.95;4.35;;;20.20;99.90;;;20.74;80.94;100680.91;5133576;28;20047;-68
2021/06/20 06:18:01;;;;;;;6.72;4.97;;;20.40;99.90;;;20.85;80.64;100678.56;5133701;28;20043;-69
2021/06/20 06:20:30;;;;;;;10.68;5.13;;;20.50;99.90;;;20.90;80.48;100672.00;5133748;28;20039;-69
2021/06/20 06:22:59;;;;;;;7.38;4.47;;;20.60;99.90;;;21.04;79.73;100674.91;5133543;28;20099;-68
2021/06/20 06:25:28;;;;;;;6.60;5.25;;;20.70;99.90;;;21.17;78.89;100683.22;5115103;28;20051;-69
2021/06/20 06:27:56;;;;;;;6.55;4.32;;;20.90;99.90;;;21.17;79.21;100691.31;5133325;28;20039;-68
2021/06/20 06:30:25;;;;;;;7.65;4.78;;;20.80;99.90;;;21.16;78.97;100690.41;5133268;28;20426;-69
2021/06/20 06:32:57;;;;;;;6.45;4.18;;;20.80;99.90;;;21.28;79.39;100692.50;5133417;28;20110;-68
2021/06/20 06:35:26;;;;;;;8.15;4.32;;;20.90;99.90;;;21.45;78.93;100697.00;5133559;28;20036;-68
2021/06/20 06:37:55;;;;;;;7.90;4.68;;;21.10;99.90;;;21.50;77.54;100705.72;5133613;28;20093;-68
2021/06/20 06:40:23;;;;;;;6.85;4.22;;;21.20;99.90;;;21.53;77.42;100709.13;5133445;28;20051;-68
2021/06/20 06:42:52;;;;;;;8.18;4.60;;;21.20;99.90;;;21.60;77.32;100717.75;5133397;28;20104;-69
2021/06/20 06:45:20;;;;;;;7.05;4.80;;;21.30;99.90;;;21.67;76.73;100712.91;5133441;28;20035;-68
2021/06/20 06:47:50;;;;;;;8.63;4.30;;;21.40;99.90;;;21.77;77.00;100724.94;5133015;28;20043;-68
2021/06/20 06:50:20;;;;;;;7.63;4.82;;;21.50;99.90;;;21.88;76.44;100719.88;5133311;28;20043;-68
2021/06/20 06:52:48;;;;;;;8.88;3.97;;;21.60;99.90;;;21.84;75.47;100724.56;5114890;28;20472;-68
2021/06/20 06:55:17;;;;;;;7.05;4.53;;;21.60;99.90;;;21.82;75.19;100734.56;5133284;28;20062;-69
2021/06/20 06:57:47;;;;;;;6.30;4.10;;;21.50;99.90;;;21.87;75.04;100735.19;5133184;28;20043;-69
2021/06/20 07:00:17;;;;;;;5.97;3.95;;;21.50;99.90;;;21.86;75.05;100725.38;5136043;27;20058;-70
2021/06/20 07:02:45;;;;;;;7.87;4.20;;;21.60;99.90;;;21.98;75.06;100738.19;5136615;27;20043;-68
2021/06/20 07:05:14;;;;;;;7.07;4.03;;;21.70;99.90;;;22.07;74.99;100736.81;5136871;27;20043;-68
2021/06/20 07:07:44;;;;;;;6.50;3.92;;;21.70;99.90;;;22.08;74.30;100738.56;5136660;27;20442;-68
2021/06/20 07:10:13;;;;;;;6.83;3.90;;;21.80;99.90;;;22.06;74.09;100738.66;5136806;27;20047;-68
2021/06/20 07:12:42;;;;;;;10.20;4.30;;;21.70;99.90;;;22.01;74.32;100735.31;5136739;27;20630;-68
2021/06/20 07:15:13;;;;;;;6.95;4.13;;;21.70;99.90;;;22.10;74.35;100733.97;5118275;27;20039;-68
2021/06/20 07:17:41;;;;;;;9.55;4.32;;;21.70;99.90;;;22.14;74.60;100739.09;5118322;27;20051;-69
2021/06/20 07:20:15;;;;;;;7.60;3.50;;;21.80;99.90;;;22.06;73.93;100732.38;5136611;27;20100;-68
2021/06/20 07:22:46;;;;;;;6.88;4.28;;;21.80;99.90;;;22.06;73.02;100735.97;5136881;27;20369;-68
2021/06/20 07:25:19;;;;;;;8.38;3.92;;;21.70;99.90;;;22.07;73.99;100737.69;5136521;27;20459;-68
2021/06/20 07:27:50;;;;;;;7.57;3.95;;;21.70;99.90;;;22.11;73.75;100744.66;5136163;27;20035;-69
2021/06/20 07:30:21;;;;;;;10.23;5.05;;;21.80;99.90;;;22.18;73.96;100756.81;5136764;27;20043;-69
2021/06/20 07:32:50;;;;;;;8.40;4.55;;;21.80;99.90;;;22.07;74.02;100720.63;5117897;27;20488;-68
2021/06/20 07:35:19;;;;;;;9.23;4.60;;;21.90;99.90;;;22.42;74.97;100738.47;5136240;27;20051;-68
2021/06/20 07:37:49;;;;;;;11.90;4.57;;;22.10;99.90;;;22.53;74.38;100724.41;5136074;27;20055;-68
2021/06/20 07:40:18;;;;;;;10.45;5.00;;;22.20;99.90;;;22.42;72.93;100689.94;5117777;27;20138;-68
2021/06/20 07:42:47;;;;;;;13.07;4.75;;;22.30;99.90;;;22.67;73.66;100721.81;5135710;27;20104;-68
2021/06/20 07:45:17;;;;;;;6.15;4.65;;;22.30;99.90;;;22.76;72.71;100719.50;5117972;27;20186;-68
2021/06/20 07:47:46;;;;;;;9.43;4.80;;;22.40;99.90;;;22.84;73.30;100716.34;5136221;27;20450;-68
2021/06/20 07:50:16;;;;;;;7.40;4.45;;;22.60;99.90;;;22.94;72.42;100722.94;5136056;27;20047;-68
2021/06/20 07:52:44;;;;;;;8.48;4.63;;;22.60;99.90;;;22.87;71.51;100725.13;5135774;27;20115;-68
2021/06/20 07:55:15;;;;;;;7.20;4.30;;;22.60;99.90;;;22.90;71.72;100738.44;5136251;27;20046;-68
2021/06/20 07:57:44;;;;;;;6.50;3.88;;;22.60;99.90;;;22.86;70.88;100733.31;5136025;27;20057;-68
2021/06/20 08:00:14;;;;;;;9.77;4.75;;;22.60;99.90;;;22.77;71.03;100740.09;5135915;27;20035;-68
2021/06/20 08:02:43;;;;;;;7.45;4.43;;;22.50;99.90;;;22.77;70.96;100753.56;5136105;27;20141;-68
2021/06/20 08:05:12;;;;;;;7.57;4.32;;;22.40;99.90;;;22.64;71.03;100754.34;5135709;27;20084;-68
2021/06/20 08:07:40;;;;;;;5.60;4.35;;;22.40;99.90;;;22.66;71.26;100769.50;5135375;27;20112;-69
2021/06/20 08:10:11;;;;;;;5.65;4.60;;;22.30;99.90;;;22.65;71.14;100761.50;5112726;28;20086;-68
2021/06/20 08:12:42;;;;;;;5.15;4.63;;;22.30;99.90;;;22.69;71.46;100768.44;5115117;28;20048;-68
2021/06/20 08:15:11;;;;;;;6.00;4.57;;;22.30;99.90;;;22.73;71.52;100770.00;5115003;28;20054;-68
2021/06/20 08:17:41;;;;;;;5.55;4.47;;;22.40;99.90;;;22.82;71.77;100764.13;5115009;28;20051;-68
2021/06/20 08:20:12;;;;;;;4.85;4.03;;;22.40;99.90;;;22.86;70.97;100769.25;5114907;28;20130;-68
2021/06/20 08:22:42;;;;;;;4.78;4.30;;;22.50;99.90;;;22.73;71.77;100745.75;5114539;28;20051;-68
2021/06/20 08:25:12;;;;;;;5.45;4.25;;;22.50;99.90;;;22.68;71.26;100772.97;5113350;28;20056;-68
2021/06/20 08:27:42;;;;;;;;;;;22.40;99.90;;;22.73;71.78;100760.09;5115274;28;20040;-68
2021/06/20 08:30:13;;;;;;;4.70;4.30;;;22.40;99.90;;;22.65;71.36;100761.50;5114621;28;19989;-68
2021/06/20 08:32:42;;;;;;;5.75;4.10;;;22.30;99.90;;;22.66;72.04;100763.22;5114717;28;20031;-68
2021/06/20 08:35:13;;;;;;;5.32;4.63;;;22.30;99.90;;;22.77;71.83;100771.59;5114082;28;20114;-68
2021/06/20 08:37:42;;;;;;;6.13;4.90;;;22.40;99.90;;;22.73;72.33;100778.09;5114370;28;20055;-69
2021/06/20 08:40:11;;;;;;;4.68;4.13;;;22.40;99.90;;;22.68;72.11;100775.69;5114318;28;20093;-68
2021/06/20 08:42:39;;;;;;;5.15;4.10;;;22.30;99.90;;;22.62;71.77;100767.06;5114185;27;20058;-68
2021/06/20 08:45:13;;;;;;;5.97;4.15;;;22.30;99.90;;;22.69;71.20;100780.09;5114390;28;20058;-69
2021/06/20 08:47:42;;;;;;;6.00;4.35;;;22.30;99.90;;;22.78;72.59;100774.22;5114317;28;20122;-68
2021/06/20 08:50:12;;;;;;;5.03;4.10;;;22.40;99.90;;;23.15;72.58;100767.59;5114264;28;20093;-68
2021/06/20 08:52:41;;;;;;;5.35;4.13;;;22.70;99.90;;;23.21;71.25;100773.50;5114313;28;20056;-68
2021/06/20 08:55:12;;;;;;;5.95;3.83;;;22.80;99.90;;;23.43;70.68;100762.34;5113877;28;20048;-67
2021/06/20 08:57:42;;;;;;;3.85;3.55;;;23.10;99.90;;;23.61;69.29;100769.38;5114647;28;20054;-67
2021/06/20 09:00:15;;;;;;;;;;;23.30;99.90;;;23.51;68.79;100737.59;5114632;28;20039;-67
2021/06/20 09:02:44;;;;;;;6.18;4.38;;;23.50;99.90;;;23.63;68.04;100783.66;5114158;28;19920;-67
2021/06/20 09:05:15;;;;;;;5.20;4.30;;;23.40;99.90;;;23.50;68.96;100785.31;5112760;28;20043;-67
2021/06/20 09:07:46;;;;;;;5.70;4.10;;;23.20;99.90;;;23.33;70.17;100790.84;5112940;28;20043;-67
2021/06/20 09:10:18;;;;;;;4.80;4.30;;;23.10;99.90;;;23.21;69.88;100794.22;5121496;27;20089;-67
2021/06/20 09:12:53;;;;;;;5.65;4.70;;;22.90;99.90;;;23.14;70.35;100798.22;5134356;27;20043;-67
2021/06/20 09:15:26;;;;;;;6.00;5.18;;;22.80;99.90;;;23.02;70.21;100801.63;5134361;27;20054;-67
2021/06/20 09:17:57;;;;;;;5.78;5.15;;;22.80;99.90;;;22.85;70.62;100804.41;5134307;27;20431;-67
2021/06/20 09:20:35;;;;;;;9.02;5.63;;;22.60;99.90;;;22.83;71.43;100792.81;5134415;27;20043;-67
2021/06/20 09:23:08;;;;;;;6.30;5.10;;;22.60;99.90;;;22.69;71.51;100806.19;5133945;27;20054;-67
2021/06/20 09:25:39;;;;;;;7.03;5.07;;;22.40;99.90;;;22.47;72.45;100776.84;5134044;27;20108;-67
2021/06/20 09:28:10;;;;;;;7.05;4.30;;;22.40;99.90;;;22.78;71.93;100811.09;5134246;27;20054;-67
2021/06/20 09:30:48;;;;;;;6.75;4.13;;;22.50;99.90;;;22.87;71.02;100819.56;5134050;27;20051;-67
2021/06/20 09:33:17;;;;;;;6.40;4.30;;;22.60;99.90;;;22.93;70.72;100821.91;5134092;27;20032;-67
2021/06/20 09:35:48;;;;;;;5.95;4.15;;;22.60;99.90;;;22.79;69.67;100820.91;5134038;27;20111;-67
2021/06/20 09:38:18;;;;;;;;;;;22.60;99.90;;;22.82;70.11;100815.38;5134490;27;20051;-67
2021/06/20 09:40:47;;;;;;;;;;;22.60;99.90;;;22.86;71.26;100823.19;5134080;27;19966;-67
2021/06/20 09:43:19;;;;;;;6.30;4.43;;;22.60;99.90;;;22.96;70.53;100831.63;5133838;27;19927;-67
2021/06/20 09:45:50;;;;;;;4.40;4.00;;;22.70;99.90;;;22.98;70.15;100824.34;5133920;27;20047;-67
2021/06/20 09:48:23;;;;;;;;;;;22.80;99.90;;;23.27;69.82;100845.16;5133957;27;20051;-68
2021/06/20 09:50:52;;;;;;;5.60;4.32;;;23.00;99.90;;;23.44;68.34;100845.06;5133835;27;19919;-67
2021/06/20 09:53:32;;;;;;;5.50;4.45;;;23.20;99.90;;;23.70;68.38;100839.03;5133650;28;20392;-67
2021/06/20 09:56:18;;;;;;;6.57;4.53;;;23.40;99.90;;;23.94;67.76;100837.56;5133690;28;20125;-67
2021/06/20 09:58:56;;;;;;;4.22;3.83;;;23.60;99.90;;;24.22;67.29;100838.63;5115416;28;20066;-67
2021/06/20 10:01:28;;;;;;;8.25;4.28;;;23.90;99.90;;;24.35;66.68;100847.75;5133834;28;20047;-68
2021/06/20 10:03:57;;;;;;;5.30;4.10;;;24.10;99.90;;;24.23;65.47;100833.16;5133657;28;20092;-68
2021/06/20 10:06:26;;;;;;;7.00;4.28;;;24.10;99.90;;;24.33;65.71;100852.41;5133446;28;20122;-68
2021/06/20 10:08:55;;;;;;;4.95;4.20;;;24.10;99.90;;;24.46;65.64;100858.78;5133633;28;20051;-67
2021/06/20 10:11:23;;;;;;;6.00;3.78;;;24.20;99.90;;;24.57;66.07;100856.28;5133317;28;20504;-67
2021/06/20 10:13:52;;;;;;;5.57;3.83;;;24.30;99.90;;;24.42;67.75;100850.00;5133463;28;20047;-67
2021/06/20 10:16:25;;;;;;;4.50;3.63;;;24.20;99.90;;;24.48;65.98;100856.84;5115066;28;20445;-67
2021/06/20 10:18:58;;;;;;;5.47;3.90;;;24.20;99.90;;;24.77;66.19;100854.09;5133611;28;20150;-67
2021/06/20 10:21:34;;;;;;;5.60;4.13;;;24.40;99.90;;;25.01;66.17;100844.41;5133611;28;20051;-67
2021/06/20 10:24:16;;;;;;;5.78;4.68;;;24.70;99.90;;;24.99;64.45;100842.75;5133546;28;20123;-67